sensor_id;sensor_type;location;lat;lon;timestamp;temperature;humidity
11009;DHT22;5557;51.670;7.788;2024-03-17T00:02:23;5.20;5.50
11009;DHT22;5557;51.670;7.788;2024-03-17T00:04:49;5.10;5.40
11009;DHT22;5557;51.670;7.788;2024-03-17T00:07:15;5.00;6.10
11009;DHT22;5557;51.670;7.788;2024-03-17T00:09:41;5.00;6.60
11009;DHT22;5557;51.670;7.788;2024-03-17T00:12:08;4.90;7.30
11009;DHT22;5557;51.670;7.788;2024-03-17T00:14:34;4.80;8.70
11009;DHT22;5557;51.670;7.788;2024-03-17T00:17:01;4.70;9.30
11009;DHT22;5557;51.670;7.788;2024-03-17T00:19:27;4.60;10.80
11009;DHT22;5557;51.670;7.788;2024-03-17T00:21:53;4.50;11.90
11009;DHT22;5557;51.670;7.788;2024-03-17T00:24:19;4.50;13.90
11009;DHT22;5557;51.670;7.788;2024-03-17T00:26:48;4.40;15.10
11009;DHT22;5557;51.670;7.788;2024-03-17T00:29:15;4.40;16.80
11009;DHT22;5557;51.670;7.788;2024-03-17T00:31:41;4.30;16.60
11009;DHT22;5557;51.670;7.788;2024-03-17T00:34:08;4.30;17.50
11009;DHT22;5557;51.670;7.788;2024-03-17T00:36:34;4.20;18.40
11009;DHT22;5557;51.670;7.788;2024-03-17T00:39:00;4.20;20.70
11009;DHT22;5557;51.670;7.788;2024-03-17T00:41:26;4.10;20.70
11009;DHT22;5557;51.670;7.788;2024-03-17T00:43:52;4.10;21.60
11009;DHT22;5557;51.670;7.788;2024-03-17T00:46:20;4.10;21.50
11009;DHT22;5557;51.670;7.788;2024-03-17T00:48:48;4.10;21.50
11009;DHT22;5557;51.670;7.788;2024-03-17T00:51:15;4.00;21.80
11009;DHT22;5557;51.670;7.788;2024-03-17T00:53:41;4.00;22.80
11009;DHT22;5557;51.670;7.788;2024-03-17T00:56:07;4.00;23.40
11009;DHT22;5557;51.670;7.788;2024-03-17T00:58:33;4.00;23.30
11009;DHT22;5557;51.670;7.788;2024-03-17T01:00:59;4.00;23.10
11009;DHT22;5557;51.670;7.788;2024-03-17T01:03:26;4.00;23.20
11009;DHT22;5557;51.670;7.788;2024-03-17T01:05:53;4.00;24.20
11009;DHT22;5557;51.670;7.788;2024-03-17T01:08:20;3.90;24.50
11009;DHT22;5557;51.670;7.788;2024-03-17T01:10:47;4.00;27.90
11009;DHT22;5557;51.670;7.788;2024-03-17T01:13:15;4.10;29.40
11009;DHT22;5557;51.670;7.788;2024-03-17T01:15:42;4.10;29.80
11009;DHT22;5557;51.670;7.788;2024-03-17T01:18:08;4.10;29.90
11009;DHT22;5557;51.670;7.788;2024-03-17T01:20:37;4.00;29.60
11009;DHT22;5557;51.670;7.788;2024-03-17T01:23:04;3.90;29.70
11009;DHT22;5557;51.670;7.788;2024-03-17T01:25:32;3.90;32.50
11009;DHT22;5557;51.670;7.788;2024-03-17T01:28:01;3.90;34.10
11009;DHT22;5557;51.670;7.788;2024-03-17T01:30:27;3.90;36.50
11009;DHT22;5557;51.670;7.788;2024-03-17T01:32:53;3.80;37.10
11009;DHT22;5557;51.670;7.788;2024-03-17T01:35:19;3.80;38.20
11009;DHT22;5557;51.670;7.788;2024-03-17T01:37:45;3.70;38.40
11009;DHT22;5557;51.670;7.788;2024-03-17T01:40:12;3.60;40.50
11009;DHT22;5557;51.670;7.788;2024-03-17T01:42:38;3.60;41.60
11009;DHT22;5557;51.670;7.788;2024-03-17T01:45:30;3.50;43.10
11009;DHT22;5557;51.670;7.788;2024-03-17T01:47:58;3.40;43.90
11009;DHT22;5557;51.670;7.788;2024-03-17T01:50:38;3.40;47.00
11009;DHT22;5557;51.670;7.788;2024-03-17T01:53:05;3.40;50.10
11009;DHT22;5557;51.670;7.788;2024-03-17T01:55:33;3.40;51.50
11009;DHT22;5557;51.670;7.788;2024-03-17T01:58:02;3.30;51.90
11009;DHT22;5557;51.670;7.788;2024-03-17T02:00:29;3.30;53.00
11009;DHT22;5557;51.670;7.788;2024-03-17T02:02:57;3.20;54.20
11009;DHT22;5557;51.670;7.788;2024-03-17T02:05:23;3.20;54.40
11009;DHT22;5557;51.670;7.788;2024-03-17T02:07:49;3.10;55.50
11009;DHT22;5557;51.670;7.788;2024-03-17T02:10:15;3.00;56.40
11009;DHT22;5557;51.670;7.788;2024-03-17T02:12:41;3.00;58.60
11009;DHT22;5557;51.670;7.788;2024-03-17T02:15:08;2.90;60.20
11009;DHT22;5557;51.670;7.788;2024-03-17T02:17:34;3.00;64.20
11009;DHT22;5557;51.670;7.788;2024-03-17T02:20:00;3.00;67.40
11009;DHT22;5557;51.670;7.788;2024-03-17T02:22:27;3.00;70.30
11009;DHT22;5557;51.670;7.788;2024-03-17T02:24:55;3.10;72.30
11009;DHT22;5557;51.670;7.788;2024-03-17T02:27:22;3.00;73.20
11009;DHT22;5557;51.670;7.788;2024-03-17T02:29:47;3.00;74.70
11009;DHT22;5557;51.670;7.788;2024-03-17T02:32:13;3.10;78.80
11009;DHT22;5557;51.670;7.788;2024-03-17T02:34:39;3.20;77.20
11009;DHT22;5557;51.670;7.788;2024-03-17T02:37:06;3.10;73.60
11009;DHT22;5557;51.670;7.788;2024-03-17T02:39:35;3.00;68.40
11009;DHT22;5557;51.670;7.788;2024-03-17T02:42:04;2.90;64.90
11009;DHT22;5557;51.670;7.788;2024-03-17T02:44:31;2.70;63.60
11009;DHT22;5557;51.670;7.788;2024-03-17T02:47:01;2.60;63.00
11009;DHT22;5557;51.670;7.788;2024-03-17T02:49:28;2.50;66.30
11009;DHT22;5557;51.670;7.788;2024-03-17T02:52:11;2.50;68.90
11009;DHT22;5557;51.670;7.788;2024-03-17T02:54:40;2.40;71.90
11009;DHT22;5557;51.670;7.788;2024-03-17T02:57:07;2.40;74.50
11009;DHT22;5557;51.670;7.788;2024-03-17T02:59:33;2.40;76.60
11009;DHT22;5557;51.670;7.788;2024-03-17T03:01:59;2.30;78.30
11009;DHT22;5557;51.670;7.788;2024-03-17T03:04:26;2.30;81.80
11009;DHT22;5557;51.670;7.788;2024-03-17T03:06:52;2.30;85.80
11009;DHT22;5557;51.670;7.788;2024-03-17T03:09:18;2.40;90.00
11009;DHT22;5557;51.670;7.788;2024-03-17T03:11:59;2.40;91.90
11009;DHT22;5557;51.670;7.788;2024-03-17T03:14:31;2.50;93.00
11009;DHT22;5557;51.670;7.788;2024-03-17T03:16:58;2.40;93.90
11009;DHT22;5557;51.670;7.788;2024-03-17T03:19:24;2.40;94.90
11009;DHT22;5557;51.670;7.788;2024-03-17T03:21:50;2.40;95.20
11009;DHT22;5557;51.670;7.788;2024-03-17T03:24:16;2.30;96.00
11009;DHT22;5557;51.670;7.788;2024-03-17T03:26:43;2.30;97.70
11009;DHT22;5557;51.670;7.788;2024-03-17T03:29:12;2.20;98.00
11009;DHT22;5557;51.670;7.788;2024-03-17T03:31:40;2.30;99.90
11009;DHT22;5557;51.670;7.788;2024-03-17T03:34:07;2.40;99.90
11009;DHT22;5557;51.670;7.788;2024-03-17T03:36:39;2.50;99.90
11009;DHT22;5557;51.670;7.788;2024-03-17T03:39:07;2.50;99.90
11009;DHT22;5557;51.670;7.788;2024-03-17T03:41:36;2.50;99.90
11009;DHT22;5557;51.670;7.788;2024-03-17T03:44:02;2.60;99.90
11009;DHT22;5557;51.670;7.788;2024-03-17T03:46:29;2.70;99.90
11009;DHT22;5557;51.670;7.788;2024-03-17T03:48:55;2.70;99.90
11009;DHT22;5557;51.670;7.788;2024-03-17T03:51:21;2.70;99.90
11009;DHT22;5557;51.670;7.788;2024-03-17T03:53:47;2.60;99.90
11009;DHT22;5557;51.670;7.788;2024-03-17T03:56:13;2.70;99.90
11009;DHT22;5557;51.670;7.788;2024-03-17T03:58:39;2.70;99.90
11009;DHT22;5557;51.670;7.788;2024-03-17T04:01:06;2.70;99.90
11009;DHT22;5557;51.670;7.788;2024-03-17T04:03:34;2.70;99.90
11009;DHT22;5557;51.670;7.788;2024-03-17T04:06:08;2.70;99.90
11009;DHT22;5557;51.670;7.788;2024-03-17T04:08:35;2.70;99.90
11009;DHT22;5557;51.670;7.788;2024-03-17T04:11:02;2.70;99.90
11009;DHT22;5557;51.670;7.788;2024-03-17T04:13:29;2.70;99.90
11009;DHT22;5557;51.670;7.788;2024-03-17T04:15:59;2.70;99.90
11009;DHT22;5557;51.670;7.788;2024-03-17T04:18:26;2.70;99.90
11009;DHT22;5557;51.670;7.788;2024-03-17T04:20:55;2.70;99.90
11009;DHT22;5557;51.670;7.788;2024-03-17T04:23:22;2.60;99.60
11009;DHT22;5557;51.670;7.788;2024-03-17T04:25:50;2.60;99.90
11009;DHT22;5557;51.670;7.788;2024-03-17T04:28:16;2.70;99.90
11009;DHT22;5557;51.670;7.788;2024-03-17T04:30:42;2.80;99.90
11009;DHT22;5557;51.670;7.788;2024-03-17T04:33:09;2.80;99.90
11009;DHT22;5557;51.670;7.788;2024-03-17T04:35:36;2.80;99.50
11009;DHT22;5557;51.670;7.788;2024-03-17T04:38:02;2.70;98.30
11009;DHT22;5557;51.670;7.788;2024-03-17T04:40:28;2.70;97.50
11009;DHT22;5557;51.670;7.788;2024-03-17T04:42:54;2.70;97.80
11009;DHT22;5557;51.670;7.788;2024-03-17T04:45:20;2.70;97.80
11009;DHT22;5557;51.670;7.788;2024-03-17T04:47:46;2.70;97.80
11009;DHT22;5557;51.670;7.788;2024-03-17T04:50:13;2.70;97.60
11009;DHT22;5557;51.670;7.788;2024-03-17T04:52:39;2.60;97.60
11009;DHT22;5557;51.670;7.788;2024-03-17T04:55:05;2.60;97.20
11009;DHT22;5557;51.670;7.788;2024-03-17T04:57:31;2.60;96.80
11009;DHT22;5557;51.670;7.788;2024-03-17T04:59:57;2.50;96.90
11009;DHT22;5557;51.670;7.788;2024-03-17T05:02:23;2.50;97.00
11009;DHT22;5557;51.670;7.788;2024-03-17T05:04:50;2.50;97.10
11009;DHT22;5557;51.670;7.788;2024-03-17T05:07:16;2.50;98.00
11009;DHT22;5557;51.670;7.788;2024-03-17T05:09:42;2.50;99.40
11009;DHT22;5557;51.670;7.788;2024-03-17T05:12:10;2.50;98.90
11009;DHT22;5557;51.670;7.788;2024-03-17T05:14:36;2.60;99.70
11009;DHT22;5557;51.670;7.788;2024-03-17T05:17:02;2.60;99.90
11009;DHT22;5557;51.670;7.788;2024-03-17T05:19:28;2.60;99.80
11009;DHT22;5557;51.670;7.788;2024-03-17T05:21:54;2.60;99.90
11009;DHT22;5557;51.670;7.788;2024-03-17T05:24:20;2.60;99.70
11009;DHT22;5557;51.670;7.788;2024-03-17T05:26:46;2.70;99.90
11009;DHT22;5557;51.670;7.788;2024-03-17T05:29:12;2.70;99.50
11009;DHT22;5557;51.670;7.788;2024-03-17T05:31:38;2.80;98.80
11009;DHT22;5557;51.670;7.788;2024-03-17T05:34:09;2.90;97.30
11009;DHT22;5557;51.670;7.788;2024-03-17T05:36:36;2.90;94.80
11009;DHT22;5557;51.670;7.788;2024-03-17T05:39:03;2.90;92.70
11009;DHT22;5557;51.670;7.788;2024-03-17T05:41:29;3.00;90.70
11009;DHT22;5557;51.670;7.788;2024-03-17T05:43:54;3.00;86.60
11009;DHT22;5557;51.670;7.788;2024-03-17T05:46:25;3.00;82.00
11009;DHT22;5557;51.670;7.788;2024-03-17T05:48:54;3.00;78.60
11009;DHT22;5557;51.670;7.788;2024-03-17T05:51:20;3.00;75.70
11009;DHT22;5557;51.670;7.788;2024-03-17T05:53:46;2.90;72.80
11009;DHT22;5557;51.670;7.788;2024-03-17T05:56:13;3.00;70.60
11009;DHT22;5557;51.670;7.788;2024-03-17T05:58:39;2.90;68.60
11009;DHT22;5557;51.670;7.788;2024-03-17T06:01:05;2.90;67.50
11009;DHT22;5557;51.670;7.788;2024-03-17T06:03:35;2.90;67.20
11009;DHT22;5557;51.670;7.788;2024-03-17T06:06:05;2.90;67.30
11009;DHT22;5557;51.670;7.788;2024-03-17T06:08:33;3.00;67.90
11009;DHT22;5557;51.670;7.788;2024-03-17T06:10:59;3.10;67.80
11009;DHT22;5557;51.670;7.788;2024-03-17T06:13:29;3.10;65.60
11009;DHT22;5557;51.670;7.788;2024-03-17T06:15:55;3.20;62.10
11009;DHT22;5557;51.670;7.788;2024-03-17T06:18:26;3.20;58.40
11009;DHT22;5557;51.670;7.788;2024-03-17T06:20:53;3.20;56.10
11009;DHT22;5557;51.670;7.788;2024-03-17T06:23:19;3.20;54.60
11009;DHT22;5557;51.670;7.788;2024-03-17T06:25:47;3.30;52.30
11009;DHT22;5557;51.670;7.788;2024-03-17T06:28:17;3.30;50.20
11009;DHT22;5557;51.670;7.788;2024-03-17T06:30:54;3.40;48.70
11009;DHT22;5557;51.670;7.788;2024-03-17T06:33:20;3.50;48.60
11009;DHT22;5557;51.670;7.788;2024-03-17T06:35:47;3.60;47.60
11009;DHT22;5557;51.670;7.788;2024-03-17T06:38:13;3.90;47.20
11009;DHT22;5557;51.670;7.788;2024-03-17T06:40:41;4.20;41.30
11009;DHT22;5557;51.670;7.788;2024-03-17T06:43:07;4.50;30.50
11009;DHT22;5557;51.670;7.788;2024-03-17T06:45:34;4.80;21.20
11009;DHT22;5557;51.670;7.788;2024-03-17T06:48:00;5.30;14.40
11009;DHT22;5557;51.670;7.788;2024-03-17T06:50:26;5.70;5.10
11009;DHT22;5557;51.670;7.788;2024-03-17T06:52:52;6.10;1.00
11009;DHT22;5557;51.670;7.788;2024-03-17T06:55:18;6.60;1.00
11009;DHT22;5557;51.670;7.788;2024-03-17T06:57:47;7.10;1.00
11009;DHT22;5557;51.670;7.788;2024-03-17T07:00:14;7.20;1.00
11009;DHT22;5557;51.670;7.788;2024-03-17T07:02:40;7.30;1.00
11009;DHT22;5557;51.670;7.788;2024-03-17T07:05:07;7.60;1.00
11009;DHT22;5557;51.670;7.788;2024-03-17T07:07:33;7.80;1.00
11009;DHT22;5557;51.670;7.788;2024-03-17T07:09:59;7.80;1.00
11009;DHT22;5557;51.670;7.788;2024-03-17T07:12:30;7.60;1.00
11009;DHT22;5557;51.670;7.788;2024-03-17T07:14:56;7.60;1.00
11009;DHT22;5557;51.670;7.788;2024-03-17T07:17:22;7.60;1.00
11009;DHT22;5557;51.670;7.788;2024-03-17T07:19:48;8.10;1.00
11009;DHT22;5557;51.670;7.788;2024-03-17T07:22:15;8.90;1.00
11009;DHT22;5557;51.670;7.788;2024-03-17T07:24:41;9.20;1.00
11009;DHT22;5557;51.670;7.788;2024-03-17T07:27:09;9.20;1.00
11009;DHT22;5557;51.670;7.788;2024-03-17T07:29:39;9.40;1.00
11009;DHT22;5557;51.670;7.788;2024-03-17T07:32:06;9.60;1.00
11009;DHT22;5557;51.670;7.788;2024-03-17T07:34:32;9.90;1.00
11009;DHT22;5557;51.670;7.788;2024-03-17T07:36:59;10.30;1.00
11009;DHT22;5557;51.670;7.788;2024-03-17T07:39:29;10.90;1.00
11009;DHT22;5557;51.670;7.788;2024-03-17T07:41:59;11.50;1.00
11009;DHT22;5557;51.670;7.788;2024-03-17T07:44:27;12.20;1.00
11009;DHT22;5557;51.670;7.788;2024-03-17T07:46:55;12.60;1.00
11009;DHT22;5557;51.670;7.788;2024-03-17T07:49:20;13.00;1.00
11009;DHT22;5557;51.670;7.788;2024-03-17T07:51:47;12.90;1.00
11009;DHT22;5557;51.670;7.788;2024-03-17T07:54:13;12.30;1.00
11009;DHT22;5557;51.670;7.788;2024-03-17T07:56:39;12.40;1.00
11009;DHT22;5557;51.670;7.788;2024-03-17T07:59:05;12.30;1.00
11009;DHT22;5557;51.670;7.788;2024-03-17T08:01:37;11.70;1.00
11009;DHT22;5557;51.670;7.788;2024-03-17T08:04:04;11.40;1.00
11009;DHT22;5557;51.670;7.788;2024-03-17T08:06:30;11.20;1.00
11009;DHT22;5557;51.670;7.788;2024-03-17T08:08:56;10.80;1.00
11009;DHT22;5557;51.670;7.788;2024-03-17T08:11:23;10.50;1.00
11009;DHT22;5557;51.670;7.788;2024-03-17T08:13:50;10.10;1.00
11009;DHT22;5557;51.670;7.788;2024-03-17T08:16:16;10.00;1.00
11009;DHT22;5557;51.670;7.788;2024-03-17T08:18:42;9.90;1.00
11009;DHT22;5557;51.670;7.788;2024-03-17T08:21:09;9.80;1.00
11009;DHT22;5557;51.670;7.788;2024-03-17T08:23:35;9.50;1.00
11009;DHT22;5557;51.670;7.788;2024-03-17T08:26:07;9.50;1.00
11009;DHT22;5557;51.670;7.788;2024-03-17T08:28:34;9.40;1.00
11009;DHT22;5557;51.670;7.788;2024-03-17T08:31:01;9.70;1.00
11009;DHT22;5557;51.670;7.788;2024-03-17T08:33:28;9.70;1.00
11009;DHT22;5557;51.670;7.788;2024-03-17T08:36:16;9.60;1.00
11009;DHT22;5557;51.670;7.788;2024-03-17T08:38:42;9.40;1.00
11009;DHT22;5557;51.670;7.788;2024-03-17T08:41:09;9.40;1.00
11009;DHT22;5557;51.670;7.788;2024-03-17T08:43:37;9.40;1.00
11009;DHT22;5557;51.670;7.788;2024-03-17T08:46:07;9.40;1.00
11009;DHT22;5557;51.670;7.788;2024-03-17T08:48:35;9.50;1.00
11009;DHT22;5557;51.670;7.788;2024-03-17T08:51:02;9.70;1.00
11009;DHT22;5557;51.670;7.788;2024-03-17T08:53:28;9.80;1.00
11009;DHT22;5557;51.670;7.788;2024-03-17T08:55:55;9.70;1.00
11009;DHT22;5557;51.670;7.788;2024-03-17T08:58:21;9.70;1.00
11009;DHT22;5557;51.670;7.788;2024-03-17T09:00:48;9.70;1.00
11009;DHT22;5557;51.670;7.788;2024-03-17T09:03:14;9.70;1.00
11009;DHT22;5557;51.670;7.788;2024-03-17T09:05:42;9.80;1.00
11009;DHT22;5557;51.670;7.788;2024-03-17T09:08:23;9.80;1.00
11009;DHT22;5557;51.670;7.788;2024-03-17T09:10:51;9.90;1.00
11009;DHT22;5557;51.670;7.788;2024-03-17T09:13:19;9.90;1.00
11009;DHT22;5557;51.670;7.788;2024-03-17T09:16:01;9.90;1.00
11009;DHT22;5557;51.670;7.788;2024-03-17T09:18:28;10.00;1.00
11009;DHT22;5557;51.670;7.788;2024-03-17T09:21:02;10.30;1.00
11009;DHT22;5557;51.670;7.788;2024-03-17T09:23:29;10.90;1.00
11009;DHT22;5557;51.670;7.788;2024-03-17T09:26:09;11.30;1.00
11009;DHT22;5557;51.670;7.788;2024-03-17T09:28:36;11.70;1.00
11009;DHT22;5557;51.670;7.788;2024-03-17T09:31:03;12.00;1.00
11009;DHT22;5557;51.670;7.788;2024-03-17T09:33:33;13.00;1.00
11009;DHT22;5557;51.670;7.788;2024-03-17T09:36:07;14.20;1.00
11009;DHT22;5557;51.670;7.788;2024-03-17T09:38:34;14.70;1.00
11009;DHT22;5557;51.670;7.788;2024-03-17T09:41:00;13.90;1.00
11009;DHT22;5557;51.670;7.788;2024-03-17T09:43:27;13.50;1.00
11009;DHT22;5557;51.670;7.788;2024-03-17T09:45:54;13.30;1.00
11009;DHT22;5557;51.670;7.788;2024-03-17T09:48:25;13.10;1.00
11009;DHT22;5557;51.670;7.788;2024-03-17T09:50:59;12.60;1.00
11009;DHT22;5557;51.670;7.788;2024-03-17T09:53:34;12.40;1.00
11009;DHT22;5557;51.670;7.788;2024-03-17T09:56:10;12.40;1.00
11009;DHT22;5557;51.670;7.788;2024-03-17T09:58:37;13.10;1.00
11009;DHT22;5557;51.670;7.788;2024-03-17T10:01:04;13.00;1.00
11009;DHT22;5557;51.670;7.788;2024-03-17T10:03:45;12.90;1.00
11009;DHT22;5557;51.670;7.788;2024-03-17T10:06:13;12.80;1.00
11009;DHT22;5557;51.670;7.788;2024-03-17T10:08:43;13.00;1.00
11009;DHT22;5557;51.670;7.788;2024-03-17T10:11:10;12.90;1.00
11009;DHT22;5557;51.670;7.788;2024-03-17T10:13:37;12.70;1.00
11009;DHT22;5557;51.670;7.788;2024-03-17T10:16:03;12.60;1.00
11009;DHT22;5557;51.670;7.788;2024-03-17T10:18:30;12.60;1.00
11009;DHT22;5557;51.670;7.788;2024-03-17T10:20:57;12.70;1.00
11009;DHT22;5557;51.670;7.788;2024-03-17T10:23:24;12.90;1.00
11009;DHT22;5557;51.670;7.788;2024-03-17T10:25:51;12.90;1.00
11009;DHT22;5557;51.670;7.788;2024-03-17T10:28:18;12.90;1.00
11009;DHT22;5557;51.670;7.788;2024-03-17T10:30:59;12.90;1.00
11009;DHT22;5557;51.670;7.788;2024-03-17T10:33:26;12.60;1.00
11009;DHT22;5557;51.670;7.788;2024-03-17T10:36:02;12.60;1.00
11009;DHT22;5557;51.670;7.788;2024-03-17T10:38:31;12.70;1.00
11009;DHT22;5557;51.670;7.788;2024-03-17T10:40:57;12.90;1.00
11009;DHT22;5557;51.670;7.788;2024-03-17T10:43:23;13.10;1.00
11009;DHT22;5557;51.670;7.788;2024-03-17T10:45:53;13.10;1.00
11009;DHT22;5557;51.670;7.788;2024-03-17T10:48:20;12.90;1.00
11009;DHT22;5557;51.670;7.788;2024-03-17T10:50:48;12.90;1.00
11009;DHT22;5557;51.670;7.788;2024-03-17T10:53:19;12.90;1.00
11009;DHT22;5557;51.670;7.788;2024-03-17T10:56:04;13.10;1.00
11009;DHT22;5557;51.670;7.788;2024-03-17T10:58:38;13.20;1.00
11009;DHT22;5557;51.670;7.788;2024-03-17T11:01:14;13.40;1.00
11009;DHT22;5557;51.670;7.788;2024-03-17T11:03:40;13.50;1.00
11009;DHT22;5557;51.670;7.788;2024-03-17T11:06:07;13.50;1.00
11009;DHT22;5557;51.670;7.788;2024-03-17T11:08:34;13.50;1.00
11009;DHT22;5557;51.670;7.788;2024-03-17T11:11:01;13.20;1.00
11009;DHT22;5557;51.670;7.788;2024-03-17T11:13:31;13.10;1.00
11009;DHT22;5557;51.670;7.788;2024-03-17T11:15:58;13.40;1.00
11009;DHT22;5557;51.670;7.788;2024-03-17T11:18:28;13.40;1.00
11009;DHT22;5557;51.670;7.788;2024-03-17T11:23:32;13.50;1.00
11009;DHT22;5557;51.670;7.788;2024-03-17T11:25:59;13.40;1.00
11009;DHT22;5557;51.670;7.788;2024-03-17T11:31:38;13.30;1.00
11009;DHT22;5557;51.670;7.788;2024-03-17T11:34:27;13.70;1.00
11009;DHT22;5557;51.670;7.788;2024-03-17T11:36:55;14.10;1.00
11009;DHT22;5557;51.670;7.788;2024-03-17T11:42:19;13.50;1.00
11009;DHT22;5557;51.670;7.788;2024-03-17T11:44:57;13.40;1.00
11009;DHT22;5557;51.670;7.788;2024-03-17T11:47:33;13.40;1.00
11009;DHT22;5557;51.670;7.788;2024-03-17T11:50:05;13.70;1.00
11009;DHT22;5557;51.670;7.788;2024-03-17T11:52:31;14.10;1.00
11009;DHT22;5557;51.670;7.788;2024-03-17T11:54:57;14.20;1.00
11009;DHT22;5557;51.670;7.788;2024-03-17T11:57:25;14.00;1.00
11009;DHT22;5557;51.670;7.788;2024-03-17T11:59:52;13.70;1.00
11009;DHT22;5557;51.670;7.788;2024-03-17T12:02:26;13.40;1.00
11009;DHT22;5557;51.670;7.788;2024-03-17T12:05:01;13.70;1.00
11009;DHT22;5557;51.670;7.788;2024-03-17T12:07:27;13.90;1.00
11009;DHT22;5557;51.670;7.788;2024-03-17T12:09:55;14.10;1.00
11009;DHT22;5557;51.670;7.788;2024-03-17T12:12:27;14.30;1.00
11009;DHT22;5557;51.670;7.788;2024-03-17T12:15:03;14.20;1.00
11009;DHT22;5557;51.670;7.788;2024-03-17T12:17:31;13.90;1.00
11009;DHT22;5557;51.670;7.788;2024-03-17T12:19:58;13.70;1.00
11009;DHT22;5557;51.670;7.788;2024-03-17T12:22:25;13.60;1.00
11009;DHT22;5557;51.670;7.788;2024-03-17T12:24:54;13.50;1.00
11009;DHT22;5557;51.670;7.788;2024-03-17T12:27:24;13.30;1.00
11009;DHT22;5557;51.670;7.788;2024-03-17T12:29:52;13.30;1.00
11009;DHT22;5557;51.670;7.788;2024-03-17T12:32:22;13.40;1.00
11009;DHT22;5557;51.670;7.788;2024-03-17T12:34:51;13.60;1.00
11009;DHT22;5557;51.670;7.788;2024-03-17T12:37:19;13.60;1.00
11009;DHT22;5557;51.670;7.788;2024-03-17T12:39:45;13.50;1.00
11009;DHT22;5557;51.670;7.788;2024-03-17T12:42:16;13.60;1.00
11009;DHT22;5557;51.670;7.788;2024-03-17T12:44:51;13.60;1.00
11009;DHT22;5557;51.670;7.788;2024-03-17T12:47:31;13.50;1.00
11009;DHT22;5557;51.670;7.788;2024-03-17T12:50:01;13.50;1.00
11009;DHT22;5557;51.670;7.788;2024-03-17T12:52:33;13.40;1.00
11009;DHT22;5557;51.670;7.788;2024-03-17T12:55:07;13.60;1.00
11009;DHT22;5557;51.670;7.788;2024-03-17T12:57:53;13.60;1.00
11009;DHT22;5557;51.670;7.788;2024-03-17T13:01:02;13.60;1.00
11009;DHT22;5557;51.670;7.788;2024-03-17T13:03:36;13.70;1.00
11009;DHT22;5557;51.670;7.788;2024-03-17T13:06:04;13.70;1.00
11009;DHT22;5557;51.670;7.788;2024-03-17T13:08:32;13.80;1.00
11009;DHT22;5557;51.670;7.788;2024-03-17T13:10:59;13.80;1.00
11009;DHT22;5557;51.670;7.788;2024-03-17T13:13:25;13.80;1.00
11009;DHT22;5557;51.670;7.788;2024-03-17T13:15:51;13.70;1.00
11009;DHT22;5557;51.670;7.788;2024-03-17T13:18:18;13.70;1.00
11009;DHT22;5557;51.670;7.788;2024-03-17T13:20:45;13.70;1.00
11009;DHT22;5557;51.670;7.788;2024-03-17T13:23:11;13.50;1.00
11009;DHT22;5557;51.670;7.788;2024-03-17T13:25:38;13.30;1.00
11009;DHT22;5557;51.670;7.788;2024-03-17T13:28:05;13.30;1.00
11009;DHT22;5557;51.670;7.788;2024-03-17T13:30:33;13.30;1.00
11009;DHT22;5557;51.670;7.788;2024-03-17T13:33:02;13.40;1.00
11009;DHT22;5557;51.670;7.788;2024-03-17T13:35:38;13.40;1.00
11009;DHT22;5557;51.670;7.788;2024-03-17T13:38:09;13.50;1.00
11009;DHT22;5557;51.670;7.788;2024-03-17T13:40:37;13.50;1.00
11009;DHT22;5557;51.670;7.788;2024-03-17T13:43:04;13.40;1.00
11009;DHT22;5557;51.670;7.788;2024-03-17T13:45:42;13.30;1.00
11009;DHT22;5557;51.670;7.788;2024-03-17T13:48:09;13.30;1.00
11009;DHT22;5557;51.670;7.788;2024-03-17T13:50:39;13.30;1.00
11009;DHT22;5557;51.670;7.788;2024-03-17T13:53:06;13.40;1.00
11009;DHT22;5557;51.670;7.788;2024-03-17T13:55:33;13.50;1.00
11009;DHT22;5557;51.670;7.788;2024-03-17T13:57:59;13.40;1.00
11009;DHT22;5557;51.670;7.788;2024-03-17T14:00:26;13.40;1.00
11009;DHT22;5557;51.670;7.788;2024-03-17T14:02:54;13.40;1.00
11009;DHT22;5557;51.670;7.788;2024-03-17T14:05:22;13.40;1.00
11009;DHT22;5557;51.670;7.788;2024-03-17T14:07:48;13.30;1.00
11009;DHT22;5557;51.670;7.788;2024-03-17T14:10:16;13.30;1.00
11009;DHT22;5557;51.670;7.788;2024-03-17T14:12:42;13.40;1.00
11009;DHT22;5557;51.670;7.788;2024-03-17T14:15:10;13.30;1.00
11009;DHT22;5557;51.670;7.788;2024-03-17T14:17:40;13.40;1.00
11009;DHT22;5557;51.670;7.788;2024-03-17T14:20:07;13.30;1.00
11009;DHT22;5557;51.670;7.788;2024-03-17T14:22:46;13.20;1.00
11009;DHT22;5557;51.670;7.788;2024-03-17T14:25:30;13.30;1.00
11009;DHT22;5557;51.670;7.788;2024-03-17T14:27:56;13.30;1.00
11009;DHT22;5557;51.670;7.788;2024-03-17T14:30:22;13.40;1.00
11009;DHT22;5557;51.670;7.788;2024-03-17T14:32:48;13.30;1.00
11009;DHT22;5557;51.670;7.788;2024-03-17T14:35:18;13.20;1.00
11009;DHT22;5557;51.670;7.788;2024-03-17T14:37:48;13.20;1.00
11009;DHT22;5557;51.670;7.788;2024-03-17T14:40:15;13.40;1.00
11009;DHT22;5557;51.670;7.788;2024-03-17T14:42:52;13.30;1.00
11009;DHT22;5557;51.670;7.788;2024-03-17T14:45:19;13.20;1.00
11009;DHT22;5557;51.670;7.788;2024-03-17T14:47:45;13.00;1.00
11009;DHT22;5557;51.670;7.788;2024-03-17T14:50:12;13.00;1.00
11009;DHT22;5557;51.670;7.788;2024-03-17T14:52:38;13.00;1.00
11009;DHT22;5557;51.670;7.788;2024-03-17T14:55:06;13.00;1.00
11009;DHT22;5557;51.670;7.788;2024-03-17T14:57:33;13.10;1.00
11009;DHT22;5557;51.670;7.788;2024-03-17T14:59:59;13.10;1.00
11009;DHT22;5557;51.670;7.788;2024-03-17T15:02:25;13.10;1.00
11009;DHT22;5557;51.670;7.788;2024-03-17T15:04:52;13.00;1.00
11009;DHT22;5557;51.670;7.788;2024-03-17T15:07:18;13.10;1.00
11009;DHT22;5557;51.670;7.788;2024-03-17T15:09:44;13.10;1.00
11009;DHT22;5557;51.670;7.788;2024-03-17T15:12:10;13.00;1.00
11009;DHT22;5557;51.670;7.788;2024-03-17T15:14:36;13.00;1.00
11009;DHT22;5557;51.670;7.788;2024-03-17T15:17:03;12.90;1.00
11009;DHT22;5557;51.670;7.788;2024-03-17T15:19:29;12.90;1.00
11009;DHT22;5557;51.670;7.788;2024-03-17T15:21:55;12.90;1.00
11009;DHT22;5557;51.670;7.788;2024-03-17T15:24:21;12.90;1.00
11009;DHT22;5557;51.670;7.788;2024-03-17T15:26:47;12.80;1.00
11009;DHT22;5557;51.670;7.788;2024-03-17T15:29:15;12.90;1.00
11009;DHT22;5557;51.670;7.788;2024-03-17T15:31:41;12.80;1.00
11009;DHT22;5557;51.670;7.788;2024-03-17T15:34:07;12.90;1.00
11009;DHT22;5557;51.670;7.788;2024-03-17T15:36:33;12.80;1.00
11009;DHT22;5557;51.670;7.788;2024-03-17T15:38:59;12.80;1.00
11009;DHT22;5557;51.670;7.788;2024-03-17T15:41:26;12.70;1.00
11009;DHT22;5557;51.670;7.788;2024-03-17T15:43:51;12.80;1.00
11009;DHT22;5557;51.670;7.788;2024-03-17T15:46:19;12.70;1.00
11009;DHT22;5557;51.670;7.788;2024-03-17T15:48:45;12.70;1.00
11009;DHT22;5557;51.670;7.788;2024-03-17T15:51:12;12.70;1.00
11009;DHT22;5557;51.670;7.788;2024-03-17T15:53:38;12.70;1.00
11009;DHT22;5557;51.670;7.788;2024-03-17T15:56:04;12.70;1.00
11009;DHT22;5557;51.670;7.788;2024-03-17T15:58:32;12.60;1.00
11009;DHT22;5557;51.670;7.788;2024-03-17T16:00:58;12.70;1.00
11009;DHT22;5557;51.670;7.788;2024-03-17T16:03:36;12.60;1.00
11009;DHT22;5557;51.670;7.788;2024-03-17T16:06:11;12.60;1.00
11009;DHT22;5557;51.670;7.788;2024-03-17T16:08:56;12.60;1.00
11009;DHT22;5557;51.670;7.788;2024-03-17T16:11:27;12.60;1.00
11009;DHT22;5557;51.670;7.788;2024-03-17T16:13:55;12.60;1.00
11009;DHT22;5557;51.670;7.788;2024-03-17T16:16:23;12.60;1.00
11009;DHT22;5557;51.670;7.788;2024-03-17T16:18:54;12.60;1.00
11009;DHT22;5557;51.670;7.788;2024-03-17T16:21:21;12.60;1.00